sensor_id;sensor_type;location;lat;lon;timestamp;temperature;humidity
6206;DHT22;3136;48.788;9.772;2024-02-26T00:00:32;5.30;99.90
6206;DHT22;3136;48.788;9.772;2024-02-26T00:03:00;5.20;99.90
6206;DHT22;3136;48.788;9.772;2024-02-26T00:05:26;5.20;99.90
6206;DHT22;3136;48.788;9.772;2024-02-26T00:07:52;5.10;99.90
6206;DHT22;3136;48.788;9.772;2024-02-26T00:10:18;5.20;1.00
6206;DHT22;3136;48.788;9.772;2024-02-26T00:12:44;5.10;1.00
6206;DHT22;3136;48.788;9.772;2024-02-26T00:15:10;5.10;1.00
6206;DHT22;3136;48.788;9.772;2024-02-26T00:17:36;5.00;1.00
6206;DHT22;3136;48.788;9.772;2024-02-26T00:20:02;5.00;95.70
6206;DHT22;3136;48.788;9.772;2024-02-26T00:22:30;5.00;99.90
6206;DHT22;3136;48.788;9.772;2024-02-26T00:24:55;5.00;99.90
6206;DHT22;3136;48.788;9.772;2024-02-26T00:27:21;5.00;99.90
6206;DHT22;3136;48.788;9.772;2024-02-26T00:29:47;5.00;99.90
6206;DHT22;3136;48.788;9.772;2024-02-26T00:32:12;5.00;1.00
6206;DHT22;3136;48.788;9.772;2024-02-26T00:34:38;5.00;57.70
6206;DHT22;3136;48.788;9.772;2024-02-26T00:37:03;5.00;45.80
6206;DHT22;3136;48.788;9.772;2024-02-26T00:39:29;5.00;99.90
6206;DHT22;3136;48.788;9.772;2024-02-26T00:41:54;5.00;99.90
6206;DHT22;3136;48.788;9.772;2024-02-26T00:44:20;4.90;99.90
6206;DHT22;3136;48.788;9.772;2024-02-26T00:46:46;5.00;99.90
6206;DHT22;3136;48.788;9.772;2024-02-26T00:49:11;4.90;99.90
6206;DHT22;3136;48.788;9.772;2024-02-26T00:51:37;4.90;99.90
6206;DHT22;3136;48.788;9.772;2024-02-26T00:54:02;5.00;99.90
6206;DHT22;3136;48.788;9.772;2024-02-26T00:56:28;5.00;62.80
6206;DHT22;3136;48.788;9.772;2024-02-26T00:58:53;4.90;1.00
6206;DHT22;3136;48.788;9.772;2024-02-26T01:01:19;4.90;1.00
6206;DHT22;3136;48.788;9.772;2024-02-26T01:03:45;5.00;1.00
6206;DHT22;3136;48.788;9.772;2024-02-26T01:06:10;5.00;1.00
6206;DHT22;3136;48.788;9.772;2024-02-26T01:08:36;5.00;1.00
6206;DHT22;3136;48.788;9.772;2024-02-26T01:11:03;4.90;1.00
6206;DHT22;3136;48.788;9.772;2024-02-26T01:13:28;4.90;1.00
6206;DHT22;3136;48.788;9.772;2024-02-26T01:15:54;4.80;1.00
6206;DHT22;3136;48.788;9.772;2024-02-26T01:18:20;4.80;1.00
6206;DHT22;3136;48.788;9.772;2024-02-26T01:20:46;4.80;1.00
6206;DHT22;3136;48.788;9.772;2024-02-26T01:23:12;4.80;1.00
6206;DHT22;3136;48.788;9.772;2024-02-26T01:25:38;4.70;1.00
6206;DHT22;3136;48.788;9.772;2024-02-26T01:28:04;4.70;1.00
6206;DHT22;3136;48.788;9.772;2024-02-26T01:30:30;4.70;1.00
6206;DHT22;3136;48.788;9.772;2024-02-26T01:32:56;4.70;10.70
6206;DHT22;3136;48.788;9.772;2024-02-26T01:35:22;4.70;1.00
6206;DHT22;3136;48.788;9.772;2024-02-26T01:37:48;4.70;1.00
6206;DHT22;3136;48.788;9.772;2024-02-26T01:40:13;4.70;44.50
6206;DHT22;3136;48.788;9.772;2024-02-26T01:42:44;4.70;69.00
6206;DHT22;3136;48.788;9.772;2024-02-26T01:45:16;4.70;90.60
6206;DHT22;3136;48.788;9.772;2024-02-26T01:47:48;4.70;56.90
6206;DHT22;3136;48.788;9.772;2024-02-26T01:50:15;4.80;1.00
6206;DHT22;3136;48.788;9.772;2024-02-26T01:52:40;4.70;1.00
6206;DHT22;3136;48.788;9.772;2024-02-26T01:55:07;4.70;16.30
6206;DHT22;3136;48.788;9.772;2024-02-26T01:57:33;4.70;7.30
6206;DHT22;3136;48.788;9.772;2024-02-26T01:59:59;4.70;16.60
6206;DHT22;3136;48.788;9.772;2024-02-26T02:02:25;4.70;18.50
6206;DHT22;3136;48.788;9.772;2024-02-26T02:04:51;4.70;56.90
6206;DHT22;3136;48.788;9.772;2024-02-26T02:07:18;4.70;51.50
6206;DHT22;3136;48.788;9.772;2024-02-26T02:09:44;4.70;99.90
6206;DHT22;3136;48.788;9.772;2024-02-26T02:12:11;4.60;99.90
6206;DHT22;3136;48.788;9.772;2024-02-26T02:14:36;4.60;99.90
6206;DHT22;3136;48.788;9.772;2024-02-26T02:17:02;4.60;99.90
6206;DHT22;3136;48.788;9.772;2024-02-26T02:19:27;4.50;99.90
6206;DHT22;3136;48.788;9.772;2024-02-26T02:21:53;4.50;99.90
6206;DHT22;3136;48.788;9.772;2024-02-26T02:24:18;4.50;99.90
6206;DHT22;3136;48.788;9.772;2024-02-26T02:26:44;4.50;1.00
6206;DHT22;3136;48.788;9.772;2024-02-26T02:29:10;4.50;1.00
6206;DHT22;3136;48.788;9.772;2024-02-26T02:31:36;4.50;1.00
6206;DHT22;3136;48.788;9.772;2024-02-26T02:34:02;4.40;1.00
6206;DHT22;3136;48.788;9.772;2024-02-26T02:36:28;4.40;1.00
6206;DHT22;3136;48.788;9.772;2024-02-26T02:38:54;4.40;19.20
6206;DHT22;3136;48.788;9.772;2024-02-26T02:41:19;4.50;99.90
6206;DHT22;3136;48.788;9.772;2024-02-26T02:43:45;4.40;99.90
6206;DHT22;3136;48.788;9.772;2024-02-26T02:46:10;4.40;1.00
6206;DHT22;3136;48.788;9.772;2024-02-26T02:48:39;4.50;1.00
6206;DHT22;3136;48.788;9.772;2024-02-26T02:51:06;4.40;99.90
6206;DHT22;3136;48.788;9.772;2024-02-26T02:53:32;4.40;99.90
6206;DHT22;3136;48.788;9.772;2024-02-26T02:55:57;4.00;1.00
6206;DHT22;3136;48.788;9.772;2024-02-26T02:58:23;4.40;1.00
6206;DHT22;3136;48.788;9.772;2024-02-26T03:00:48;4.50;1.00
6206;DHT22;3136;48.788;9.772;2024-02-26T03:03:14;4.40;1.00
6206;DHT22;3136;48.788;9.772;2024-02-26T03:05:39;4.40;1.00
6206;DHT22;3136;48.788;9.772;2024-02-26T03:08:05;4.50;35.70
6206;DHT22;3136;48.788;9.772;2024-02-26T03:10:30;4.50;1.00
6206;DHT22;3136;48.788;9.772;2024-02-26T03:12:56;4.50;99.90
6206;DHT22;3136;48.788;9.772;2024-02-26T03:15:22;4.50;99.90
6206;DHT22;3136;48.788;9.772;2024-02-26T03:17:47;4.50;99.90
6206;DHT22;3136;48.788;9.772;2024-02-26T03:20:13;4.50;99.90
6206;DHT22;3136;48.788;9.772;2024-02-26T03:22:39;4.50;99.90
6206;DHT22;3136;48.788;9.772;2024-02-26T03:25:06;4.60;99.90
6206;DHT22;3136;48.788;9.772;2024-02-26T03:27:32;4.60;99.90
6206;DHT22;3136;48.788;9.772;2024-02-26T03:29:58;4.60;99.90
6206;DHT22;3136;48.788;9.772;2024-02-26T03:32:24;4.60;99.90
6206;DHT22;3136;48.788;9.772;2024-02-26T03:34:49;4.60;99.90
6206;DHT22;3136;48.788;9.772;2024-02-26T03:37:15;4.60;99.90
6206;DHT22;3136;48.788;9.772;2024-02-26T03:39:40;4.70;99.90
6206;DHT22;3136;48.788;9.772;2024-02-26T03:42:06;4.70;99.90
6206;DHT22;3136;48.788;9.772;2024-02-26T03:44:31;4.70;99.90
6206;DHT22;3136;48.788;9.772;2024-02-26T03:46:57;5.40;99.90
6206;DHT22;3136;48.788;9.772;2024-02-26T03:49:22;4.70;99.90
6206;DHT22;3136;48.788;9.772;2024-02-26T03:51:48;4.70;99.90
6206;DHT22;3136;48.788;9.772;2024-02-26T03:54:14;4.70;1.00
6206;DHT22;3136;48.788;9.772;2024-02-26T03:56:39;4.80;1.00
6206;DHT22;3136;48.788;9.772;2024-02-26T03:59:05;4.70;1.00
6206;DHT22;3136;48.788;9.772;2024-02-26T04:01:31;4.80;1.00
6206;DHT22;3136;48.788;9.772;2024-02-26T04:03:57;4.80;1.00
6206;DHT22;3136;48.788;9.772;2024-02-26T04:06:22;4.70;1.00
6206;DHT22;3136;48.788;9.772;2024-02-26T04:08:48;4.70;1.00
6206;DHT22;3136;48.788;9.772;2024-02-26T04:11:14;4.70;1.00
6206;DHT22;3136;48.788;9.772;2024-02-26T04:13:46;4.70;99.90
6206;DHT22;3136;48.788;9.772;2024-02-26T04:16:15;4.70;99.90
6206;DHT22;3136;48.788;9.772;2024-02-26T04:18:41;4.70;99.90
6206;DHT22;3136;48.788;9.772;2024-02-26T04:21:07;4.70;1.00
6206;DHT22;3136;48.788;9.772;2024-02-26T04:23:32;4.70;1.00
6206;DHT22;3136;48.788;9.772;2024-02-26T04:25:58;4.70;1.00
6206;DHT22;3136;48.788;9.772;2024-02-26T04:28:24;4.70;1.00
6206;DHT22;3136;48.788;9.772;2024-02-26T04:30:55;4.70;99.90
6206;DHT22;3136;48.788;9.772;2024-02-26T04:33:21;4.80;1.00
6206;DHT22;3136;48.788;9.772;2024-02-26T04:35:46;4.70;1.00
6206;DHT22;3136;48.788;9.772;2024-02-26T04:38:12;4.70;99.90
6206;DHT22;3136;48.788;9.772;2024-02-26T04:40:38;4.70;1.00
6206;DHT22;3136;48.788;9.772;2024-02-26T04:43:03;4.70;99.90
6206;DHT22;3136;48.788;9.772;2024-02-26T04:45:29;4.70;1.00
6206;DHT22;3136;48.788;9.772;2024-02-26T04:47:54;4.70;1.00
6206;DHT22;3136;48.788;9.772;2024-02-26T04:50:20;4.70;72.90
6206;DHT22;3136;48.788;9.772;2024-02-26T04:52:46;4.60;99.90
6206;DHT22;3136;48.788;9.772;2024-02-26T04:55:11;4.60;1.00
6206;DHT22;3136;48.788;9.772;2024-02-26T04:57:37;4.60;1.00
6206;DHT22;3136;48.788;9.772;2024-02-26T05:00:04;4.60;99.90
6206;DHT22;3136;48.788;9.772;2024-02-26T05:02:30;4.60;99.90
6206;DHT22;3136;48.788;9.772;2024-02-26T05:04:57;4.60;99.90
6206;DHT22;3136;48.788;9.772;2024-02-26T05:07:23;4.60;1.00
6206;DHT22;3136;48.788;9.772;2024-02-26T05:09:48;4.60;1.00
6206;DHT22;3136;48.788;9.772;2024-02-26T05:12:15;4.50;59.80
6206;DHT22;3136;48.788;9.772;2024-02-26T05:14:41;4.50;99.90
6206;DHT22;3136;48.788;9.772;2024-02-26T05:17:06;4.60;99.90
6206;DHT22;3136;48.788;9.772;2024-02-26T05:19:32;4.50;99.90
6206;DHT22;3136;48.788;9.772;2024-02-26T05:21:57;4.60;1.00
6206;DHT22;3136;48.788;9.772;2024-02-26T05:24:23;4.50;1.00
6206;DHT22;3136;48.788;9.772;2024-02-26T05:26:48;4.50;1.00
6206;DHT22;3136;48.788;9.772;2024-02-26T05:29:14;4.50;1.00
6206;DHT22;3136;48.788;9.772;2024-02-26T05:31:42;4.50;1.00
6206;DHT22;3136;48.788;9.772;2024-02-26T05:34:08;4.50;1.00
6206;DHT22;3136;48.788;9.772;2024-02-26T05:36:33;4.50;1.00
6206;DHT22;3136;48.788;9.772;2024-02-26T05:39:00;4.50;1.00
6206;DHT22;3136;48.788;9.772;2024-02-26T05:41:26;4.50;1.00
6206;DHT22;3136;48.788;9.772;2024-02-26T05:43:55;4.50;99.90
6206;DHT22;3136;48.788;9.772;2024-02-26T05:46:21;4.50;1.00
6206;DHT22;3136;48.788;9.772;2024-02-26T05:48:48;4.50;99.90
6206;DHT22;3136;48.788;9.772;2024-02-26T05:51:14;4.60;99.90
6206;DHT22;3136;48.788;9.772;2024-02-26T05:53:43;4.60;99.90
6206;DHT22;3136;48.788;9.772;2024-02-26T05:56:08;4.60;1.00
6206;DHT22;3136;48.788;9.772;2024-02-26T05:58:34;4.60;1.00
6206;DHT22;3136;48.788;9.772;2024-02-26T06:01:00;4.60;1.00
6206;DHT22;3136;48.788;9.772;2024-02-26T06:03:26;4.60;1.00
6206;DHT22;3136;48.788;9.772;2024-02-26T06:05:52;4.60;1.00
6206;DHT22;3136;48.788;9.772;2024-02-26T06:08:18;4.60;1.00
6206;DHT22;3136;48.788;9.772;2024-02-26T06:10:43;4.60;48.10
6206;DHT22;3136;48.788;9.772;2024-02-26T06:13:09;4.60;99.90
6206;DHT22;3136;48.788;9.772;2024-02-26T06:15:34;4.60;99.90
6206;DHT22;3136;48.788;9.772;2024-02-26T06:18:00;4.60;1.00
6206;DHT22;3136;48.788;9.772;2024-02-26T06:20:25;4.60;1.00
6206;DHT22;3136;48.788;9.772;2024-02-26T06:22:51;4.70;1.00
6206;DHT22;3136;48.788;9.772;2024-02-26T06:25:16;4.70;99.90
6206;DHT22;3136;48.788;9.772;2024-02-26T06:27:42;4.70;99.90
6206;DHT22;3136;48.788;9.772;2024-02-26T06:30:08;4.70;99.90
6206;DHT22;3136;48.788;9.772;2024-02-26T06:32:36;4.70;99.90
6206;DHT22;3136;48.788;9.772;2024-02-26T06:35:02;4.70;1.00
6206;DHT22;3136;48.788;9.772;2024-02-26T06:37:32;4.70;1.00
6206;DHT22;3136;48.788;9.772;2024-02-26T06:39:59;4.70;1.00
6206;DHT22;3136;48.788;9.772;2024-02-26T06:42:25;4.70;1.00
6206;DHT22;3136;48.788;9.772;2024-02-26T06:44:50;4.70;1.00
6206;DHT22;3136;48.788;9.772;2024-02-26T06:47:16;4.60;99.90
6206;DHT22;3136;48.788;9.772;2024-02-26T06:49:41;4.60;99.90
6206;DHT22;3136;48.788;9.772;2024-02-26T06:52:07;4.60;99.90
6206;DHT22;3136;48.788;9.772;2024-02-26T06:54:33;4.60;1.00
6206;DHT22;3136;48.788;9.772;2024-02-26T06:56:58;4.60;1.00
6206;DHT22;3136;48.788;9.772;2024-02-26T06:59:24;4.60;1.00
6206;DHT22;3136;48.788;9.772;2024-02-26T07:01:49;4.60;1.00
6206;DHT22;3136;48.788;9.772;2024-02-26T07:04:15;4.70;1.00
6206;DHT22;3136;48.788;9.772;2024-02-26T07:06:41;4.70;1.00
6206;DHT22;3136;48.788;9.772;2024-02-26T07:09:08;4.70;1.00
6206;DHT22;3136;48.788;9.772;2024-02-26T07:11:33;4.70;1.00
6206;DHT22;3136;48.788;9.772;2024-02-26T07:13:59;4.80;1.00
6206;DHT22;3136;48.788;9.772;2024-02-26T07:16:26;4.80;1.00
6206;DHT22;3136;48.788;9.772;2024-02-26T07:18:52;4.90;1.00
6206;DHT22;3136;48.788;9.772;2024-02-26T07:21:18;4.90;1.00
6206;DHT22;3136;48.788;9.772;2024-02-26T07:23:43;5.00;1.00
6206;DHT22;3136;48.788;9.772;2024-02-26T07:26:09;5.00;1.00
6206;DHT22;3136;48.788;9.772;2024-02-26T07:28:37;5.00;1.00
6206;DHT22;3136;48.788;9.772;2024-02-26T07:31:02;5.00;1.00
6206;DHT22;3136;48.788;9.772;2024-02-26T07:33:28;5.00;1.00
6206;DHT22;3136;48.788;9.772;2024-02-26T07:35:54;5.10;1.00
6206;DHT22;3136;48.788;9.772;2024-02-26T07:38:20;5.10;1.00
6206;DHT22;3136;48.788;9.772;2024-02-26T07:40:45;5.20;99.90
6206;DHT22;3136;48.788;9.772;2024-02-26T07:43:11;5.20;99.90
6206;DHT22;3136;48.788;9.772;2024-02-26T07:45:36;5.30;99.90
6206;DHT22;3136;48.788;9.772;2024-02-26T07:48:02;5.40;99.90
6206;DHT22;3136;48.788;9.772;2024-02-26T07:50:28;5.50;99.90
6206;DHT22;3136;48.788;9.772;2024-02-26T07:52:53;5.60;99.90
6206;DHT22;3136;48.788;9.772;2024-02-26T07:55:19;5.70;1.00
6206;DHT22;3136;48.788;9.772;2024-02-26T07:57:44;5.80;39.90
6206;DHT22;3136;48.788;9.772;2024-02-26T08:00:10;5.90;99.90
6206;DHT22;3136;48.788;9.772;2024-02-26T08:02:37;6.10;1.00
6206;DHT22;3136;48.788;9.772;2024-02-26T08:05:02;6.20;99.90
6206;DHT22;3136;48.788;9.772;2024-02-26T08:07:28;6.30;99.90
6206;DHT22;3136;48.788;9.772;2024-02-26T08:09:54;6.50;99.90
6206;DHT22;3136;48.788;9.772;2024-02-26T08:12:20;6.60;1.00
6206;DHT22;3136;48.788;9.772;2024-02-26T08:14:46;6.60;99.90
6206;DHT22;3136;48.788;9.772;2024-02-26T08:17:12;6.70;99.90
6206;DHT22;3136;48.788;9.772;2024-02-26T08:19:37;6.70;99.90
6206;DHT22;3136;48.788;9.772;2024-02-26T08:22:03;6.80;1.00
6206;DHT22;3136;48.788;9.772;2024-02-26T08:24:28;6.90;1.00
6206;DHT22;3136;48.788;9.772;2024-02-26T08:26:54;6.90;99.90
6206;DHT22;3136;48.788;9.772;2024-02-26T08:29:20;6.90;99.90
6206;DHT22;3136;48.788;9.772;2024-02-26T08:31:45;6.90;99.90
6206;DHT22;3136;48.788;9.772;2024-02-26T08:34:11;6.90;99.90
6206;DHT22;3136;48.788;9.772;2024-02-26T08:36:36;6.90;99.90
6206;DHT22;3136;48.788;9.772;2024-02-26T08:39:02;7.00;22.50
6206;DHT22;3136;48.788;9.772;2024-02-26T08:41:28;7.10;1.00
6206;DHT22;3136;48.788;9.772;2024-02-26T08:43:54;7.10;1.00
6206;DHT22;3136;48.788;9.772;2024-02-26T08:46:20;7.10;99.90
6206;DHT22;3136;48.788;9.772;2024-02-26T08:48:45;7.20;99.90
6206;DHT22;3136;48.788;9.772;2024-02-26T08:51:11;7.30;99.90
6206;DHT22;3136;48.788;9.772;2024-02-26T08:53:37;7.40;99.90
6206;DHT22;3136;48.788;9.772;2024-02-26T08:56:02;7.60;99.90
6206;DHT22;3136;48.788;9.772;2024-02-26T08:58:28;7.70;96.20
6206;DHT22;3136;48.788;9.772;2024-02-26T09:00:54;7.70;1.00
6206;DHT22;3136;48.788;9.772;2024-02-26T09:03:20;7.70;1.00
6206;DHT22;3136;48.788;9.772;2024-02-26T09:05:46;7.80;1.00
6206;DHT22;3136;48.788;9.772;2024-02-26T09:08:11;7.80;1.00
6206;DHT22;3136;48.788;9.772;2024-02-26T09:10:38;8.00;1.00
6206;DHT22;3136;48.788;9.772;2024-02-26T09:13:04;8.10;1.00
6206;DHT22;3136;48.788;9.772;2024-02-26T09:15:30;8.20;1.00
6206;DHT22;3136;48.788;9.772;2024-02-26T09:17:55;8.30;1.00
6206;DHT22;3136;48.788;9.772;2024-02-26T09:20:21;8.30;1.00
6206;DHT22;3136;48.788;9.772;2024-02-26T09:22:49;8.40;1.00
6206;DHT22;3136;48.788;9.772;2024-02-26T09:25:15;8.40;99.90
6206;DHT22;3136;48.788;9.772;2024-02-26T09:27:44;8.40;99.90
6206;DHT22;3136;48.788;9.772;2024-02-26T09:30:13;8.40;99.90
6206;DHT22;3136;48.788;9.772;2024-02-26T09:32:46;8.40;99.90
6206;DHT22;3136;48.788;9.772;2024-02-26T09:35:12;8.30;99.90
6206;DHT22;3136;48.788;9.772;2024-02-26T09:37:38;8.40;99.90
6206;DHT22;3136;48.788;9.772;2024-02-26T09:40:04;8.40;99.90
6206;DHT22;3136;48.788;9.772;2024-02-26T09:42:31;8.50;99.90
6206;DHT22;3136;48.788;9.772;2024-02-26T09:45:00;8.50;99.90
6206;DHT22;3136;48.788;9.772;2024-02-26T09:47:31;8.50;99.90
6206;DHT22;3136;48.788;9.772;2024-02-26T09:49:57;8.60;99.90
6206;DHT22;3136;48.788;9.772;2024-02-26T09:52:24;8.60;99.90
6206;DHT22;3136;48.788;9.772;2024-02-26T09:54:51;8.70;99.90
6206;DHT22;3136;48.788;9.772;2024-02-26T09:57:17;8.80;99.90
6206;DHT22;3136;48.788;9.772;2024-02-26T09:59:43;8.90;99.90
6206;DHT22;3136;48.788;9.772;2024-02-26T10:02:12;9.00;99.90
6206;DHT22;3136;48.788;9.772;2024-02-26T10:04:39;9.10;99.90
6206;DHT22;3136;48.788;9.772;2024-02-26T10:07:10;9.20;99.90
6206;DHT22;3136;48.788;9.772;2024-02-26T10:09:36;9.20;99.90
6206;DHT22;3136;48.788;9.772;2024-02-26T10:12:02;9.30;99.90
6206;DHT22;3136;48.788;9.772;2024-02-26T10:14:28;9.50;99.90
6206;DHT22;3136;48.788;9.772;2024-02-26T10:16:54;9.70;99.90
6206;DHT22;3136;48.788;9.772;2024-02-26T10:19:27;9.90;99.90
6206;DHT22;3136;48.788;9.772;2024-02-26T10:22:00;10.10;99.90
6206;DHT22;3136;48.788;9.772;2024-02-26T10:24:27;10.30;99.90
6206;DHT22;3136;48.788;9.772;2024-02-26T10:26:54;10.50;99.90
6206;DHT22;3136;48.788;9.772;2024-02-26T10:29:21;10.60;99.90
6206;DHT22;3136;48.788;9.772;2024-02-26T10:31:47;8.80;99.90
6206;DHT22;3136;48.788;9.772;2024-02-26T10:34:14;11.00;99.90
6206;DHT22;3136;48.788;9.772;2024-02-26T10:36:40;11.10;99.90
6206;DHT22;3136;48.788;9.772;2024-02-26T10:39:07;11.40;99.90
6206;DHT22;3136;48.788;9.772;2024-02-26T10:41:35;11.70;99.90
6206;DHT22;3136;48.788;9.772;2024-02-26T10:44:01;12.00;99.90
6206;DHT22;3136;48.788;9.772;2024-02-26T10:46:27;12.30;99.90
6206;DHT22;3136;48.788;9.772;2024-02-26T10:48:53;12.70;99.90
6206;DHT22;3136;48.788;9.772;2024-02-26T10:51:26;14.00;99.90
6206;DHT22;3136;48.788;9.772;2024-02-26T10:53:59;13.20;99.90
6206;DHT22;3136;48.788;9.772;2024-02-26T10:56:28;13.30;99.90
6206;DHT22;3136;48.788;9.772;2024-02-26T10:58:55;13.50;99.90
6206;DHT22;3136;48.788;9.772;2024-02-26T11:01:22;13.40;99.90
6206;DHT22;3136;48.788;9.772;2024-02-26T11:03:52;13.50;99.90
6206;DHT22;3136;48.788;9.772;2024-02-26T11:06:19;13.40;99.90
6206;DHT22;3136;48.788;9.772;2024-02-26T11:08:49;13.30;99.90
6206;DHT22;3136;48.788;9.772;2024-02-26T11:11:19;13.30;99.90
6206;DHT22;3136;48.788;9.772;2024-02-26T11:13:47;13.20;99.90
6206;DHT22;3136;48.788;9.772;2024-02-26T11:16:20;13.30;99.90
6206;DHT22;3136;48.788;9.772;2024-02-26T11:18:47;13.30;99.90
6206;DHT22;3136;48.788;9.772;2024-02-26T11:21:16;13.20;99.90
6206;DHT22;3136;48.788;9.772;2024-02-26T11:23:48;13.10;99.90
6206;DHT22;3136;48.788;9.772;2024-02-26T11:26:15;13.20;99.90
6206;DHT22;3136;48.788;9.772;2024-02-26T11:28:43;13.10;99.90
6206;DHT22;3136;48.788;9.772;2024-02-26T11:31:10;13.00;99.90
6206;DHT22;3136;48.788;9.772;2024-02-26T11:33:36;12.80;99.90
6206;DHT22;3136;48.788;9.772;2024-02-26T11:36:07;12.80;99.90
6206;DHT22;3136;48.788;9.772;2024-02-26T11:38:33;12.70;99.90
6206;DHT22;3136;48.788;9.772;2024-02-26T11:40:58;12.70;99.90
6206;DHT22;3136;48.788;9.772;2024-02-26T11:44:00;12.70;99.90
6206;DHT22;3136;48.788;9.772;2024-02-26T11:46:31;12.70;99.90
6206;DHT22;3136;48.788;9.772;2024-02-26T11:49:02;12.80;99.90
6206;DHT22;3136;48.788;9.772;2024-02-26T11:51:32;13.10;99.90
6206;DHT22;3136;48.788;9.772;2024-02-26T11:53:58;13.20;99.90
6206;DHT22;3136;48.788;9.772;2024-02-26T11:56:24;13.30;99.90
6206;DHT22;3136;48.788;9.772;2024-02-26T12:01:46;13.10;99.90
6206;DHT22;3136;48.788;9.772;2024-02-26T12:04:22;13.20;99.90
6206;DHT22;3136;48.788;9.772;2024-02-26T12:06:53;13.20;99.90
6206;DHT22;3136;48.788;9.772;2024-02-26T12:09:39;13.20;99.90
6206;DHT22;3136;48.788;9.772;2024-02-26T12:12:06;13.20;99.90
6206;DHT22;3136;48.788;9.772;2024-02-26T12:14:52;13.20;99.90
6206;DHT22;3136;48.788;9.772;2024-02-26T12:17:22;13.20;99.90
6206;DHT22;3136;48.788;9.772;2024-02-26T12:19:48;13.30;99.90
6206;DHT22;3136;48.788;9.772;2024-02-26T12:22:14;13.20;99.90
6206;DHT22;3136;48.788;9.772;2024-02-26T12:24:41;13.20;99.90
6206;DHT22;3136;48.788;9.772;2024-02-26T12:27:07;13.20;99.90
6206;DHT22;3136;48.788;9.772;2024-02-26T12:29:32;13.20;99.90
6206;DHT22;3136;48.788;9.772;2024-02-26T12:31:58;13.20;99.90
6206;DHT22;3136;48.788;9.772;2024-02-26T12:34:24;13.20;99.90
6206;DHT22;3136;48.788;9.772;2024-02-26T12:36:50;13.40;99.90
6206;DHT22;3136;48.788;9.772;2024-02-26T12:39:16;13.50;99.90
6206;DHT22;3136;48.788;9.772;2024-02-26T12:41:42;13.40;99.90
6206;DHT22;3136;48.788;9.772;2024-02-26T12:44:17;13.30;99.90
6206;DHT22;3136;48.788;9.772;2024-02-26T12:46:42;13.20;99.90
6206;DHT22;3136;48.788;9.772;2024-02-26T12:49:08;13.20;99.90
6206;DHT22;3136;48.788;9.772;2024-02-26T12:51:40;13.10;99.90
6206;DHT22;3136;48.788;9.772;2024-02-26T12:54:07;13.10;99.90
6206;DHT22;3136;48.788;9.772;2024-02-26T12:56:34;13.00;99.90
6206;DHT22;3136;48.788;9.772;2024-02-26T12:59:00;13.00;99.90
6206;DHT22;3136;48.788;9.772;2024-02-26T13:01:26;12.90;99.90
6206;DHT22;3136;48.788;9.772;2024-02-26T13:03:53;12.90;99.90
6206;DHT22;3136;48.788;9.772;2024-02-26T13:06:19;12.90;99.90
6206;DHT22;3136;48.788;9.772;2024-02-26T13:08:48;12.80;99.90
6206;DHT22;3136;48.788;9.772;2024-02-26T13:11:14;12.80;99.90
6206;DHT22;3136;48.788;9.772;2024-02-26T13:13:40;12.70;99.90
6206;DHT22;3136;48.788;9.772;2024-02-26T13:16:09;12.70;99.90
6206;DHT22;3136;48.788;9.772;2024-02-26T13:18:35;12.70;99.90
6206;DHT22;3136;48.788;9.772;2024-02-26T13:21:12;12.70;99.90
6206;DHT22;3136;48.788;9.772;2024-02-26T13:23:41;12.70;99.90
6206;DHT22;3136;48.788;9.772;2024-02-26T13:26:08;12.70;99.90
6206;DHT22;3136;48.788;9.772;2024-02-26T13:28:37;12.70;99.90
6206;DHT22;3136;48.788;9.772;2024-02-26T13:31:03;12.60;99.90
6206;DHT22;3136;48.788;9.772;2024-02-26T13:33:31;12.60;99.90
6206;DHT22;3136;48.788;9.772;2024-02-26T13:35:57;12.60;99.90
6206;DHT22;3136;48.788;9.772;2024-02-26T13:38:23;12.60;99.90
6206;DHT22;3136;48.788;9.772;2024-02-26T13:40:50;12.60;99.90
6206;DHT22;3136;48.788;9.772;2024-02-26T13:43:16;12.50;99.90
6206;DHT22;3136;48.788;9.772;2024-02-26T13:45:42;12.60;99.90
6206;DHT22;3136;48.788;9.772;2024-02-26T13:48:09;12.50;99.90
6206;DHT22;3136;48.788;9.772;2024-02-26T13:50:37;12.60;99.90
6206;DHT22;3136;48.788;9.772;2024-02-26T13:53:02;12.50;99.90
6206;DHT22;3136;48.788;9.772;2024-02-26T13:55:30;12.60;99.90
6206;DHT22;3136;48.788;9.772;2024-02-26T13:57:58;12.60;99.90
6206;DHT22;3136;48.788;9.772;2024-02-26T14:00:24;12.60;99.90
6206;DHT22;3136;48.788;9.772;2024-02-26T14:02:50;12.60;99.90
6206;DHT22;3136;48.788;9.772;2024-02-26T14:05:17;12.70;99.90
6206;DHT22;3136;48.788;9.772;2024-02-26T14:07:43;12.70;99.90
6206;DHT22;3136;48.788;9.772;2024-02-26T14:10:09;12.70;99.90
6206;DHT22;3136;48.788;9.772;2024-02-26T14:12:37;12.70;99.90
6206;DHT22;3136;48.788;9.772;2024-02-26T14:15:03;12.70;99.90
6206;DHT22;3136;48.788;9.772;2024-02-26T14:17:30;12.60;99.90
6206;DHT22;3136;48.788;9.772;2024-02-26T14:19:56;12.70;99.90
6206;DHT22;3136;48.788;9.772;2024-02-26T14:22:21;12.70;99.90
6206;DHT22;3136;48.788;9.772;2024-02-26T14:24:47;12.80;99.90
6206;DHT22;3136;48.788;9.772;2024-02-26T14:27:13;12.80;99.90
6206;DHT22;3136;48.788;9.772;2024-02-26T14:29:43;12.80;99.90
6206;DHT22;3136;48.788;9.772;2024-02-26T14:32:09;12.70;99.90
6206;DHT22;3136;48.788;9.772;2024-02-26T14:34:35;12.70;99.90
6206;DHT22;3136;48.788;9.772;2024-02-26T14:37:00;12.70;99.90
6206;DHT22;3136;48.788;9.772;2024-02-26T14:39:26;12.70;99.90
6206;DHT22;3136;48.788;9.772;2024-02-26T14:41:52;12.80;99.90
6206;DHT22;3136;48.788;9.772;2024-02-26T14:44:17;12.80;99.90
6206;DHT22;3136;48.788;9.772;2024-02-26T14:46:43;12.80;99.90
6206;DHT22;3136;48.788;9.772;2024-02-26T14:49:08;12.80;99.90
6206;DHT22;3136;48.788;9.772;2024-02-26T14:51:34;12.70;99.90
6206;DHT22;3136;48.788;9.772;2024-02-26T14:54:00;12.60;99.90
6206;DHT22;3136;48.788;9.772;2024-02-26T14:56:27;12.50;99.90
6206;DHT22;3136;48.788;9.772;2024-02-26T14:58:53;12.50;99.90
6206;DHT22;3136;48.788;9.772;2024-02-26T15:01:18;12.40;99.90
6206;DHT22;3136;48.788;9.772;2024-02-26T15:03:44;12.40;99.90
6206;DHT22;3136;48.788;9.772;2024-02-26T15:06:09;12.30;99.90
6206;DHT22;3136;48.788;9.772;2024-02-26T15:08:35;12.30;99.90
6206;DHT22;3136;48.788;9.772;2024-02-26T15:11:01;12.20;99.90
6206;DHT22;3136;48.788;9.772;2024-02-26T15:13:26;12.20;99.90
6206;DHT22;3136;48.788;9.772;2024-02-26T15:15:52;12.10;99.90
6206;DHT22;3136;48.788;9.772;2024-02-26T15:18:18;11.50;99.90
6206;DHT22;3136;48.788;9.772;2024-02-26T15:20:44;12.10;99.90
6206;DHT22;3136;48.788;9.772;2024-02-26T15:23:11;12.10;99.90
6206;DHT22;3136;48.788;9.772;2024-02-26T15:25:36;11.90;99.90
6206;DHT22;3136;48.788;9.772;2024-02-26T15:28:02;11.90;99.90
6206;DHT22;3136;48.788;9.772;2024-02-26T15:30:28;11.80;99.90
6206;DHT22;3136;48.788;9.772;2024-02-26T15:32:55;11.80;99.90
6206;DHT22;3136;48.788;9.772;2024-02-26T15:35:21;11.70;99.90
6206;DHT22;3136;48.788;9.772;2024-02-26T15:37:46;11.70;99.90
6206;DHT22;3136;48.788;9.772;2024-02-26T15:40:12;11.60;99.90
6206;DHT22;3136;48.788;9.772;2024-02-26T15:42:38;11.50;99.90
6206;DHT22;3136;48.788;9.772;2024-02-26T15:45:04;11.40;99.90
6206;DHT22;3136;48.788;9.772;2024-02-26T15:47:30;11.40;99.90
6206;DHT22;3136;48.788;9.772;2024-02-26T15:49:56;11.40;99.90
6206;DHT22;3136;48.788;9.772;2024-02-26T15:52:21;11.30;99.90
6206;DHT22;3136;48.788;9.772;2024-02-26T15:54:47;11.30;99.90
6206;DHT22;3136;48.788;9.772;2024-02-26T15:57:13;11.20;99.90
6206;DHT22;3136;48.788;9.772;2024-02-26T15:59:38;11.20;99.90
6206;DHT22;3136;48.788;9.772;2024-02-26T16:02:04;11.10;99.90
6206;DHT22;3136;48.788;9.772;2024-02-26T16:04:30;11.10;99.90
6206;DHT22;3136;48.788;9.772;2024-02-26T16:06:58;11.10;99.90
6206;DHT22;3136;48.788;9.772;2024-02-26T16:09:25;11.10;99.90
6206;DHT22;3136;48.788;9.772;2024-02-26T16:11:50;11.00;99.90
6206;DHT22;3136;48.788;9.772;2024-02-26T16:14:41;10.90;99.90